Terminal Aerodrome Forecast
Issued by NWS

Home | Current Version | Previous Version | Text Only | Print | Product List | Glossary On
Versions: 1 2 3 4 5 6 7 8 9 10 11 12 13
000
FTUS46 KSGX 011723
TAFPSP
TAF
KPSP 011723Z 0118/0218 VRB05KT P6SM SCT200
     FM012300 33011KT P6SM SCT200
     FM020200 32015G25KT P6SM SCT200
     FM021000 30007KT P6SM SCT200
     FM021600 31010G18KT P6SM SKC=

USA.gov is the U.S. government's official web portal to all federal, state and local government web resources and services.